createdAt,value
2019-03-04T00:01:04.231Z,9.60
2019-03-04T00:03:44.253Z,9.70
2019-03-04T00:06:24.253Z,9.60
2019-03-04T00:09:04.266Z,9.40
2019-03-04T00:11:44.331Z,9.50
2019-03-04T00:14:24.357Z,9.00
2019-03-04T00:17:04.380Z,9.20
2019-03-04T00:19:44.392Z,9.40
2019-03-04T00:22:24.585Z,9.10
2019-03-04T00:25:04.353Z,8.40
2019-03-04T00:27:44.443Z,9.00
2019-03-04T00:30:24.373Z,10.10
2019-03-04T00:33:04.444Z,8.20
2019-03-04T00:35:43.657Z,7.70
2019-03-04T00:38:23.690Z,8.40
2019-03-04T00:41:03.702Z,8.70
2019-03-04T00:43:43.767Z,7.40
2019-03-04T00:46:23.913Z,8.90
2019-03-04T00:49:03.901Z,8.90
2019-03-04T00:51:44.117Z,8.90
2019-03-04T00:54:24.327Z,8.90
2019-03-04T00:57:04.301Z,9.00
2019-03-04T00:59:44.106Z,9.50
2019-03-04T01:02:24.165Z,9.00
2019-03-04T01:05:04.281Z,9.10
2019-03-04T01:07:44.145Z,9.10
2019-03-04T01:10:23.337Z,9.60
2019-03-04T01:13:03.616Z,9.10
2019-03-04T01:15:43.362Z,9.10
2019-03-04T01:18:23.443Z,9.10
2019-03-04T01:21:02.739Z,9.10
2019-03-04T01:23:41.904Z,10.00
2019-03-04T01:26:21.897Z,9.30
2019-03-04T01:29:01.518Z,9.10
2019-03-04T01:31:43.529Z,9.60
2019-03-04T01:34:22.469Z,9.50
2019-03-04T01:37:02.455Z,10.10
2019-03-04T01:39:42.543Z,9.30
2019-03-04T01:42:22.685Z,9.10
2019-03-04T01:45:02.612Z,9.10
2019-03-04T01:47:41.825Z,9.00
2019-03-04T01:50:21.142Z,9.00
2019-03-04T01:53:29.117Z,8.70
2019-03-04T01:56:15.646Z,8.90
2019-03-04T01:59:02.297Z,8.90
2019-03-04T02:01:48.950Z,7.50
2019-03-04T02:04:35.591Z,8.70
2019-03-04T02:07:22.089Z,9.40
2019-03-04T02:10:09.926Z,8.50
2019-03-04T02:12:56.341Z,8.30
2019-03-04T02:15:42.836Z,8.00
2019-03-04T02:18:29.361Z,8.60
2019-03-04T02:21:15.871Z,8.70
2019-03-04T02:24:22.057Z,8.90
2019-03-04T02:27:08.642Z,8.80
2019-03-04T02:29:55.497Z,9.40
2019-03-04T02:32:41.987Z,8.70
2019-03-04T02:35:28.503Z,8.20
2019-03-04T02:38:15.006Z,8.50
2019-03-04T02:41:01.616Z,8.80
2019-03-04T02:43:48.210Z,8.40
2019-03-04T02:46:34.710Z,8.40
2019-03-04T02:49:21.253Z,8.30
2019-03-04T02:52:07.794Z,8.80
2019-03-04T02:54:47.264Z,8.30
2019-03-04T02:57:27.134Z,9.20
2019-03-04T03:00:07.184Z,9.80
2019-03-04T03:02:47.355Z,7.80
2019-03-04T03:05:27.491Z,7.70
2019-03-04T03:08:07.765Z,7.20
2019-03-04T03:10:47.795Z,7.60
2019-03-04T03:13:27.822Z,8.10
2019-03-04T03:16:07.901Z,8.50
2019-03-04T03:18:47.716Z,7.70
2019-03-04T03:21:14.561Z,8.20
2019-03-04T03:24:01.074Z,8.60
2019-03-04T03:26:47.616Z,8.70
2019-03-04T03:29:34.423Z,8.60
2019-03-04T03:32:21.159Z,9.00
2019-03-04T03:35:08.676Z,8.50
2019-03-04T03:37:56.354Z,10.40
2019-03-04T03:40:42.875Z,8.20
2019-03-04T03:43:29.286Z,8.90
2019-03-04T03:46:15.686Z,8.40
2019-03-04T03:49:02.368Z,8.50
2019-03-04T03:51:48.955Z,9.20
2019-03-04T03:54:28.835Z,8.60
2019-03-04T03:57:08.823Z,8.60
2019-03-04T03:59:48.990Z,8.60
2019-03-04T04:02:16.148Z,9.20
2019-03-04T04:04:43.119Z,8.50
2019-03-04T04:07:29.655Z,8.50
2019-03-04T04:10:16.187Z,10.10
2019-03-04T04:13:02.793Z,9.30
2019-03-04T04:15:49.416Z,8.60
2019-03-04T04:18:35.809Z,9.50
2019-03-04T04:21:22.229Z,8.70
2019-03-04T04:24:08.882Z,8.70
2019-03-04T04:26:35.754Z,8.90
2019-03-04T04:29:22.794Z,8.80
2019-03-04T04:32:09.344Z,8.80
2019-03-04T04:34:55.754Z,9.50
2019-03-04T04:37:42.286Z,10.30
2019-03-04T04:40:28.812Z,8.70
2019-03-04T04:43:15.368Z,10.40
2019-03-04T04:46:01.819Z,8.90
2019-03-04T04:48:48.237Z,8.60
2019-03-04T04:51:34.664Z,8.70
2019-03-04T04:54:14.230Z,9.60
2019-03-04T04:56:54.306Z,9.70
2019-03-04T04:59:34.292Z,8.30
2019-03-04T05:02:14.274Z,8.50
2019-03-04T05:04:53.859Z,8.60
2019-03-04T05:07:33.726Z,7.60
2019-03-04T05:12:57.874Z,8.80
2019-03-04T05:15:37.788Z,10.60
2019-03-04T05:18:17.808Z,8.30
2019-03-04T05:20:58.183Z,8.70
2019-03-04T05:26:13.518Z,8.70
2019-03-04T05:29:00.021Z,8.70
2019-03-04T05:31:46.450Z,8.40
2019-03-04T05:34:32.864Z,8.50
2019-03-04T05:37:19.866Z,8.20
2019-03-04T05:40:07.593Z,8.30
2019-03-04T05:42:54.016Z,8.50
2019-03-04T05:45:20.800Z,8.60
2019-03-04T05:48:07.779Z,8.50
2019-03-04T05:50:36.278Z,8.80
2019-03-04T05:53:16.195Z,8.50
2019-03-04T05:55:56.221Z,8.40
2019-03-04T05:58:36.263Z,8.30
2019-03-04T06:01:15.677Z,8.20
2019-03-04T06:03:55.770Z,8.20
2019-03-04T06:09:46.885Z,7.90
2019-03-04T06:12:27.222Z,8.20
2019-03-04T06:15:07.022Z,8.60
2019-03-04T06:17:47.189Z,9.20
2019-03-04T06:20:27.354Z,9.00
2019-03-04T06:22:54.141Z,8.70
2019-03-04T06:25:40.558Z,9.00
2019-03-04T06:28:26.978Z,8.50
2019-03-04T06:31:13.532Z,9.10
2019-03-04T06:34:00.046Z,9.30
2019-03-04T06:36:46.533Z,9.40
2019-03-04T06:39:33.055Z,9.50
2019-03-04T06:42:19.467Z,9.90
2019-03-04T06:45:07.423Z,8.20
2019-03-04T06:47:53.866Z,10.40
2019-03-04T06:50:44.395Z,11.00
2019-03-04T06:53:23.683Z,10.00
2019-03-04T06:56:03.784Z,11.40
2019-03-04T06:58:44.075Z,10.70
2019-03-04T07:01:23.819Z,11.00
2019-03-04T07:04:03.868Z,11.20
2019-03-04T07:06:43.112Z,10.90
2019-03-04T07:09:22.389Z,10.60
2019-03-04T07:12:02.593Z,11.10
2019-03-04T07:14:41.858Z,10.20
2019-03-04T07:17:21.953Z,9.60
2019-03-04T07:20:02.206Z,10.20
2019-03-04T07:22:42.065Z,10.30
2019-03-04T07:25:22.160Z,10.50
2019-03-04T07:28:01.995Z,10.70
2019-03-04T07:30:42.226Z,10.90
2019-03-04T07:33:09.097Z,11.30
2019-03-04T07:39:09.669Z,11.80
2019-03-04T07:41:56.821Z,12.60
2019-03-04T07:44:43.348Z,13.50
2019-03-04T07:47:11.139Z,13.90
2019-03-04T07:49:57.628Z,13.40
2019-03-04T07:52:44.033Z,13.50
2019-03-04T07:55:30.546Z,13.20
2019-03-04T08:01:03.917Z,13.70
2019-03-04T08:03:50.456Z,13.70
2019-03-04T08:09:45.216Z,13.70
2019-03-04T08:12:51.530Z,13.90
2019-03-04T08:15:42.321Z,12.70
2019-03-04T08:18:29.091Z,13.80
2019-03-04T08:21:15.802Z,14.30
2019-03-04T08:23:42.617Z,14.20
2019-03-04T08:26:29.381Z,13.70
2019-03-04T08:29:15.945Z,13.10
2019-03-04T08:32:02.461Z,14.50
2019-03-04T08:34:31.313Z,13.20
2019-03-04T08:36:58.376Z,13.00
2019-03-04T08:39:45.174Z,12.90
2019-03-04T08:42:31.838Z,12.90
2019-03-04T08:45:18.465Z,12.90
2019-03-04T08:48:05.248Z,13.50
2019-03-04T08:50:51.802Z,12.90
2019-03-04T08:53:31.526Z,13.40
2019-03-04T08:56:12.487Z,13.10
2019-03-04T08:58:52.406Z,12.40
2019-03-04T09:01:32.023Z,13.20
2019-03-04T09:04:12.427Z,13.30
2019-03-04T09:06:52.576Z,13.20
2019-03-04T09:09:32.559Z,13.20
2019-03-04T09:12:12.521Z,14.70
2019-03-04T09:14:52.498Z,12.70
2019-03-04T09:17:32.572Z,13.10
2019-03-04T09:20:12.587Z,14.70
2019-03-04T09:22:53.067Z,13.10
2019-03-04T09:25:32.969Z,13.00
2019-03-04T09:28:13.546Z,13.10
2019-03-04T09:30:53.483Z,13.00
2019-03-04T09:33:33.532Z,13.80
2019-03-04T09:36:13.338Z,12.10
2019-03-04T09:38:52.631Z,13.20
2019-03-04T09:41:32.161Z,13.10
2019-03-04T09:44:12.015Z,13.40
2019-03-04T09:46:52.082Z,12.90
2019-03-04T09:49:31.618Z,12.90
2019-03-04T09:52:11.911Z,12.90
2019-03-04T09:54:54.113Z,13.00
2019-03-04T09:57:33.717Z,12.30
2019-03-04T10:00:13.918Z,12.00
2019-03-04T10:02:53.854Z,12.20
2019-03-04T10:05:33.977Z,11.80
2019-03-04T10:08:13.941Z,11.80
2019-03-04T10:10:54.431Z,11.30
2019-03-04T10:13:34.241Z,12.70
2019-03-04T10:16:18.720Z,12.70
2019-03-04T10:18:56.255Z,11.40
2019-03-04T10:21:36.439Z,13.60
2019-03-04T10:24:16.737Z,12.40
2019-03-04T10:26:56.843Z,12.30
2019-03-04T10:29:37.021Z,12.20
2019-03-04T10:32:16.804Z,11.90
2019-03-04T10:34:56.612Z,12.10
2019-03-04T10:37:36.658Z,13.40
2019-03-04T10:40:16.744Z,12.50
2019-03-04T10:42:56.956Z,13.80
2019-03-04T10:45:36.960Z,14.00
2019-03-04T10:48:16.958Z,14.20
2019-03-04T10:50:57.323Z,13.70
2019-03-04T10:53:36.978Z,14.60
2019-03-04T10:56:16.556Z,14.30
2019-03-04T10:58:56.865Z,13.20
2019-03-04T11:01:36.671Z,13.00
2019-03-04T11:04:16.757Z,12.60
2019-03-04T11:06:56.800Z,12.70
2019-03-04T11:09:36.733Z,12.60
2019-03-04T11:12:15.952Z,12.50
2019-03-04T11:14:55.910Z,12.50
2019-03-04T11:17:36.130Z,12.40
2019-03-04T11:20:15.851Z,12.50
2019-03-04T11:22:56.342Z,12.60
2019-03-04T11:25:36.147Z,11.90
2019-03-04T11:28:16.110Z,12.50
2019-03-04T11:30:56.465Z,12.30
2019-03-04T11:33:36.353Z,13.10
2019-03-04T11:36:15.884Z,12.00
2019-03-04T11:38:55.786Z,12.00
2019-03-04T11:41:35.591Z,13.10
2019-03-04T11:44:15.846Z,11.80
2019-03-04T11:46:55.941Z,11.20
2019-03-04T11:49:36.553Z,12.60
2019-03-04T11:52:16.191Z,11.90
2019-03-04T11:54:55.931Z,11.90
2019-03-04T11:57:36.109Z,11.00
2019-03-04T12:00:16.703Z,11.00
2019-03-04T12:02:56.357Z,11.90
2019-03-04T12:05:36.241Z,11.40
2019-03-04T12:08:16.265Z,11.90
2019-03-04T12:10:56.329Z,11.50
2019-03-04T12:13:36.649Z,11.80
2019-03-04T12:16:16.553Z,12.70
2019-03-04T12:18:43.585Z,14.20
2019-03-04T12:21:30.184Z,11.80
2019-03-04T12:24:16.997Z,11.80
2019-03-04T12:27:03.823Z,12.60
2019-03-04T12:29:50.609Z,11.80
2019-03-04T12:32:37.170Z,11.90
2019-03-04T12:35:23.914Z,11.80
2019-03-04T12:38:10.434Z,11.70
2019-03-04T12:40:57.210Z,11.70
2019-03-04T12:43:43.720Z,11.60
2019-03-04T12:46:30.254Z,11.60
2019-03-04T12:49:16.783Z,11.70
2019-03-04T12:52:03.555Z,11.80
2019-03-04T12:57:44.761Z,11.50
2019-03-04T13:00:24.386Z,11.40
2019-03-04T13:03:04.339Z,11.40
2019-03-04T13:05:44.676Z,11.70
2019-03-04T13:08:24.631Z,11.30
2019-03-04T13:11:04.530Z,12.20
2019-03-04T13:13:44.623Z,11.10
2019-03-04T13:16:23.919Z,10.80
2019-03-04T13:19:04.187Z,11.10
2019-03-04T13:21:44.055Z,11.60
2019-03-04T13:24:24.099Z,11.30
2019-03-04T13:27:04.431Z,11.00
2019-03-04T13:29:44.569Z,10.40
2019-03-04T13:32:24.361Z,11.40
2019-03-04T13:35:04.422Z,10.60
2019-03-04T13:37:43.678Z,11.00
2019-03-04T13:40:24.032Z,10.80
2019-03-04T13:43:03.880Z,10.90
2019-03-04T13:45:44.041Z,10.90
2019-03-04T13:48:24.003Z,10.80
2019-03-04T13:51:03.454Z,11.10
2019-03-04T13:53:43.637Z,10.70
2019-03-04T13:56:24.147Z,10.80
2019-03-04T13:59:03.926Z,10.60
2019-03-04T14:01:43.258Z,10.80
2019-03-04T14:04:23.465Z,10.80
2019-03-04T14:07:03.932Z,10.70
2019-03-04T14:09:43.731Z,10.80
2019-03-04T14:12:23.855Z,10.80
2019-03-04T14:15:03.947Z,10.80
2019-03-04T14:17:43.761Z,11.20
2019-03-04T14:20:23.031Z,10.70
2019-03-04T14:23:02.994Z,10.70
2019-03-04T14:25:43.342Z,12.40
2019-03-04T14:28:23.059Z,12.10
2019-03-04T14:31:03.201Z,10.70
2019-03-04T14:33:42.336Z,10.50
2019-03-04T14:36:21.799Z,10.90
2019-03-04T14:39:01.070Z,11.10
2019-03-04T14:41:41.635Z,11.40
2019-03-04T14:44:08.639Z,11.70
2019-03-04T14:46:55.154Z,11.30
2019-03-04T14:49:22.391Z,11.30
2019-03-04T14:52:09.158Z,11.30
2019-03-04T14:54:48.710Z,11.40
2019-03-04T14:57:28.772Z,12.20
2019-03-04T15:00:08.879Z,11.30
2019-03-04T15:02:50.196Z,11.40
2019-03-04T15:05:29.865Z,11.40
2019-03-04T15:08:10.005Z,11.50
2019-03-04T15:10:50.427Z,11.00
2019-03-04T15:13:30.309Z,12.00
2019-03-04T15:16:10.628Z,12.80
2019-03-04T15:18:50.149Z,11.90
2019-03-04T15:21:30.394Z,11.60
2019-03-04T15:24:10.221Z,11.30
2019-03-04T15:26:50.311Z,11.30
2019-03-04T15:29:29.597Z,11.20
2019-03-04T15:31:56.494Z,12.50
2019-03-04T15:34:42.917Z,12.00
2019-03-04T15:37:29.587Z,13.80
2019-03-04T15:40:16.120Z,15.20
2019-03-04T15:45:51.883Z,15.00
2019-03-04T15:48:38.422Z,14.20
2019-03-04T15:51:24.841Z,13.10
2019-03-04T15:54:04.605Z,14.10
2019-03-04T15:59:24.326Z,12.20
2019-03-04T16:01:51.209Z,11.40
2019-03-04T16:04:17.986Z,11.20
2019-03-04T16:06:44.950Z,11.00
2019-03-04T16:09:14.987Z,11.00
2019-03-04T16:11:41.970Z,11.00
2019-03-04T16:14:09.018Z,11.10
2019-03-04T16:16:35.929Z,11.10
2019-03-04T16:19:02.916Z,11.10
2019-03-04T16:21:29.890Z,11.20
2019-03-04T16:23:57.042Z,11.20
2019-03-04T16:26:24.027Z,11.30
2019-03-04T16:28:50.791Z,11.40
2019-03-04T16:31:18.272Z,11.40
2019-03-04T16:33:45.273Z,11.40
2019-03-04T16:36:12.219Z,11.30
2019-03-04T16:38:38.988Z,11.40
2019-03-04T16:41:06.244Z,11.40
2019-03-04T16:43:33.132Z,11.40
2019-03-04T16:46:00.439Z,11.50
2019-03-04T16:48:27.420Z,11.50
2019-03-04T16:50:54.368Z,10.90
2019-03-04T16:53:21.622Z,9.90
2019-03-04T16:55:48.688Z,8.90
2019-03-04T16:58:15.846Z,7.70
2019-03-04T17:03:12.202Z,6.50
2019-03-04T17:05:38.983Z,6.10
2019-03-04T17:08:06.162Z,6.20
2019-03-04T17:10:33.058Z,6.30
2019-03-04T17:13:00.006Z,6.40
2019-03-04T17:15:27.225Z,6.50
2019-03-04T17:17:54.186Z,6.50
2019-03-04T17:20:21.157Z,6.50
2019-03-04T17:22:48.465Z,6.60
2019-03-04T17:25:15.850Z,6.60
2019-03-04T17:27:43.182Z,6.50
2019-03-04T17:30:11.957Z,6.50
2019-03-04T17:32:38.958Z,6.40
2019-03-04T17:35:06.231Z,6.60
2019-03-04T17:37:33.141Z,6.70
2019-03-04T17:40:00.758Z,6.80
2019-03-04T17:42:27.638Z,6.80
2019-03-04T17:44:54.789Z,6.80
2019-03-04T17:47:21.753Z,6.80
2019-03-04T17:52:16.702Z,6.90
2019-03-04T17:54:43.626Z,7.00
2019-03-04T17:57:10.613Z,7.00
2019-03-04T17:59:37.515Z,7.00
2019-03-04T18:04:31.657Z,7.20
2019-03-04T18:09:25.522Z,7.10
2019-03-04T18:11:52.722Z,7.10
2019-03-04T18:14:19.684Z,7.00
2019-03-04T18:16:47.003Z,7.10
2019-03-04T18:19:14.043Z,7.20
2019-03-04T18:21:41.043Z,7.10
2019-03-04T18:24:08.141Z,7.10
2019-03-04T18:26:40.661Z,7.10
2019-03-04T18:29:32.722Z,7.00
2019-03-04T18:32:43.281Z,7.00
2019-03-04T18:36:13.749Z,6.90
2019-03-04T18:39:26.755Z,6.90
2019-03-04T18:42:14.506Z,6.80
2019-03-04T18:45:07.106Z,6.90
2019-03-04T18:48:16.260Z,6.80
2019-03-04T18:50:43.243Z,6.90
2019-03-04T18:55:37.643Z,6.70
2019-03-04T18:58:04.982Z,6.70
2019-03-04T19:00:32.078Z,6.70
2019-03-04T19:02:58.961Z,6.60
2019-03-04T19:05:26.582Z,6.70
2019-03-04T19:07:53.589Z,6.50
2019-03-04T19:10:20.507Z,6.50
2019-03-04T19:12:47.653Z,6.50
2019-03-04T19:15:14.758Z,6.50
2019-03-04T19:17:41.548Z,6.30
2019-03-04T19:20:10.623Z,6.30
2019-03-04T19:22:37.759Z,6.40
2019-03-04T19:25:04.986Z,6.30
2019-03-04T19:27:32.014Z,6.30
2019-03-04T19:29:59.145Z,6.30
2019-03-04T19:32:26.236Z,6.30
2019-03-04T19:34:53.278Z,6.30
2019-03-04T19:37:20.176Z,6.20
2019-03-04T19:39:47.635Z,6.30
2019-03-04T19:42:14.533Z,6.30
2019-03-04T19:44:41.545Z,6.20
2019-03-04T19:47:08.602Z,6.10
2019-03-04T19:49:35.611Z,6.20
2019-03-04T19:52:02.482Z,6.20
2019-03-04T19:54:29.398Z,6.10
2019-03-04T19:56:56.421Z,6.80
2019-03-04T19:59:23.628Z,6.10
2019-03-04T20:01:50.700Z,6.10
2019-03-04T20:04:17.932Z,6.00
2019-03-04T20:06:45.069Z,6.00
2019-03-04T20:09:12.559Z,6.00
2019-03-04T20:11:39.792Z,6.00
2019-03-04T20:14:06.940Z,5.90
2019-03-04T20:16:34.250Z,5.80
2019-03-04T20:19:01.241Z,5.70
2019-03-04T20:21:28.261Z,5.60
2019-03-04T20:23:55.152Z,5.60
2019-03-04T20:26:22.745Z,5.60
2019-03-04T20:28:49.617Z,5.60
2019-03-04T20:31:16.469Z,5.50
2019-03-04T20:33:45.071Z,5.60
2019-03-04T20:36:12.112Z,5.50
2019-03-04T20:38:42.060Z,5.50
2019-03-04T20:41:08.965Z,5.40
2019-03-04T20:43:35.954Z,5.40
2019-03-04T20:46:03.132Z,5.40
2019-03-04T20:48:30.015Z,5.30
2019-03-04T20:50:57.160Z,5.30
2019-03-04T20:53:24.021Z,5.30
2019-03-04T20:55:50.905Z,5.40
2019-03-04T20:58:17.877Z,5.30
2019-03-04T21:00:44.895Z,5.30
2019-03-04T21:03:12.162Z,5.30
2019-03-04T21:05:39.406Z,5.30
2019-03-04T21:08:06.593Z,5.20
2019-03-04T21:10:33.881Z,5.30
2019-03-04T21:13:06.466Z,5.30
2019-03-04T21:15:33.499Z,5.30
2019-03-04T21:18:00.758Z,5.10
2019-03-04T21:20:27.970Z,5.20
2019-03-04T21:22:55.164Z,5.20
2019-03-04T21:25:34.049Z,5.20
2019-03-04T21:28:01.286Z,5.30
2019-03-04T21:31:04.790Z,5.20
2019-03-04T21:33:48.516Z,5.10
2019-03-04T21:36:22.599Z,5.10
2019-03-04T21:38:49.808Z,5.10
2019-03-04T21:41:38.145Z,5.00
2019-03-04T21:44:16.874Z,5.00
2019-03-04T21:46:52.934Z,4.90
2019-03-04T21:49:19.910Z,4.90
2019-03-04T21:52:03.723Z,4.90
2019-03-04T21:54:30.669Z,4.90
2019-03-04T21:57:14.675Z,4.90
2019-03-04T21:59:41.737Z,4.80
2019-03-04T22:02:36.326Z,4.70
2019-03-04T22:05:07.596Z,4.80
2019-03-04T22:07:37.177Z,4.80
2019-03-04T22:10:04.467Z,4.80
2019-03-04T22:12:31.843Z,4.70
2019-03-04T22:14:59.063Z,4.80
2019-03-04T22:17:26.062Z,4.80
2019-03-04T22:19:53.272Z,4.80
2019-03-04T22:22:20.310Z,4.70
2019-03-04T22:24:47.074Z,4.80
2019-03-04T22:27:14.493Z,4.70
2019-03-04T22:29:41.995Z,4.70
2019-03-04T22:32:09.257Z,4.70
2019-03-04T22:34:36.563Z,4.70
2019-03-04T22:37:03.661Z,4.70
2019-03-04T22:39:30.720Z,4.70
2019-03-04T22:41:57.602Z,4.70
2019-03-04T22:44:24.751Z,4.70
2019-03-04T22:46:51.689Z,4.80
2019-03-04T22:49:18.526Z,4.80
2019-03-04T22:51:45.490Z,4.90
2019-03-04T22:54:12.378Z,4.90
2019-03-04T22:56:39.252Z,4.80
2019-03-04T22:59:06.168Z,4.90
2019-03-04T23:01:37.578Z,5.00
2019-03-04T23:04:22.054Z,5.00
2019-03-04T23:07:00.866Z,5.00
2019-03-04T23:09:29.570Z,5.10
2019-03-04T23:12:09.543Z,5.10
2019-03-04T23:14:36.601Z,5.20
2019-03-04T23:17:03.589Z,5.10
2019-03-04T23:19:30.484Z,4.90
2019-03-04T23:21:57.345Z,4.80
2019-03-04T23:24:24.224Z,4.80
2019-03-04T23:26:51.137Z,4.80
2019-03-04T23:29:18.009Z,4.90
2019-03-04T23:31:44.870Z,4.90
2019-03-04T23:34:11.933Z,4.90
2019-03-04T23:36:38.914Z,5.00
2019-03-04T23:39:06.753Z,5.00
2019-03-04T23:41:33.598Z,5.00
2019-03-04T23:44:00.449Z,5.00
2019-03-04T23:46:27.245Z,5.00
2019-03-04T23:48:54.086Z,5.00
2019-03-04T23:51:20.947Z,4.80
2019-03-04T23:53:47.719Z,4.80
2019-03-04T23:56:14.934Z,4.80
2019-03-04T23:58:41.672Z,4.70
